createdAt,value
2017-12-06T00:01:51.283Z,11.97
2017-12-06T00:04:20.126Z,12.20
2017-12-06T00:06:49.567Z,11.12
2017-12-06T00:09:19.145Z,11.33
2017-12-06T00:11:48.722Z,11.93
2017-12-06T00:14:24.170Z,12.70
2017-12-06T00:16:53.058Z,11.47
2017-12-06T00:19:21.894Z,11.40
2017-12-06T00:21:50.743Z,10.60
2017-12-06T00:24:20.340Z,10.20
2017-12-06T00:26:49.934Z,10.17
2017-12-06T00:29:19.537Z,10.60
2017-12-06T00:31:49.106Z,9.60
2017-12-06T00:34:18.688Z,9.60
2017-12-06T00:36:48.266Z,11.13
2017-12-06T00:39:17.202Z,9.50
2017-12-06T00:41:46.034Z,10.03
2017-12-06T00:44:14.874Z,8.47
2017-12-06T00:46:43.724Z,11.53
2017-12-06T00:49:12.694Z,10.17
2017-12-06T00:51:41.677Z,11.00
2017-12-06T00:54:10.910Z,11.23
2017-12-06T00:56:39.753Z,11.20
2017-12-06T00:59:09.452Z,10.60
2017-12-06T01:01:38.287Z,11.23
2017-12-06T01:04:07.119Z,11.77
2017-12-06T01:06:35.959Z,11.67
2017-12-06T01:09:04.783Z,11.70
2017-12-06T01:11:33.611Z,11.07
2017-12-06T01:14:02.457Z,12.00
2017-12-06T01:16:31.285Z,12.80
2017-12-06T01:19:00.115Z,12.47
2017-12-06T01:21:29.194Z,12.70
2017-12-06T01:23:58.021Z,13.30
2017-12-06T01:26:26.882Z,12.57
2017-12-06T01:28:55.719Z,13.97
2017-12-06T01:31:24.552Z,12.63
2017-12-06T01:33:53.518Z,13.50
2017-12-06T01:36:22.362Z,13.90
2017-12-06T01:38:51.526Z,14.30
2017-12-06T01:41:21.194Z,15.00
2017-12-06T01:43:50.778Z,13.30
2017-12-06T01:46:20.345Z,13.17
2017-12-06T01:48:50.053Z,12.47
2017-12-06T01:51:18.898Z,12.07
2017-12-06T01:53:47.719Z,13.30
2017-12-06T01:56:16.556Z,12.63
2017-12-06T01:58:45.401Z,12.60
2017-12-06T02:01:14.265Z,12.07
2017-12-06T02:03:43.103Z,11.37
2017-12-06T02:06:11.982Z,12.17
2017-12-06T02:08:40.795Z,11.40
2017-12-06T02:11:09.633Z,10.90
2017-12-06T02:13:38.485Z,11.27
2017-12-06T02:16:07.335Z,13.00
2017-12-06T02:18:36.219Z,10.43
2017-12-06T02:21:05.051Z,9.57
2017-12-06T02:23:34.030Z,11.17
2017-12-06T02:26:02.827Z,10.43
2017-12-06T02:28:31.758Z,12.00
2017-12-06T02:31:00.608Z,11.87
2017-12-06T02:33:29.447Z,11.00
2017-12-06T02:35:58.291Z,10.70
2017-12-06T02:38:27.122Z,11.07
2017-12-06T02:41:01.926Z,11.43
2017-12-06T02:43:36.752Z,11.23
2017-12-06T02:46:05.744Z,11.17
2017-12-06T02:48:34.577Z,10.83
2017-12-06T02:51:03.434Z,10.77
2017-12-06T02:53:32.271Z,11.67
2017-12-06T02:56:01.102Z,10.90
2017-12-06T02:58:29.936Z,12.17
2017-12-06T03:00:58.831Z,11.43
2017-12-06T03:03:27.705Z,11.70
2017-12-06T03:05:56.543Z,11.13
2017-12-06T03:08:25.387Z,11.30
2017-12-06T03:10:54.209Z,11.90
2017-12-06T03:13:23.793Z,11.80
2017-12-06T03:15:53.378Z,10.97
2017-12-06T03:18:22.953Z,13.23
2017-12-06T03:20:52.538Z,11.97
2017-12-06T03:23:22.122Z,11.00
2017-12-06T03:25:50.966Z,11.73
2017-12-06T03:28:19.804Z,12.10
2017-12-06T03:30:48.639Z,11.03
2017-12-06T03:33:17.470Z,12.77
2017-12-06T03:35:46.306Z,11.03
2017-12-06T03:38:15.164Z,11.80
2017-12-06T03:40:44.012Z,10.30
2017-12-06T03:43:12.839Z,11.47
2017-12-06T03:45:41.688Z,10.70
2017-12-06T03:48:10.526Z,11.27
2017-12-06T03:50:39.386Z,12.00
2017-12-06T03:53:08.246Z,10.80
2017-12-06T03:55:37.089Z,11.97
2017-12-06T03:58:05.937Z,10.50
2017-12-06T04:00:34.777Z,11.57
2017-12-06T04:03:03.611Z,13.13
2017-12-06T04:05:32.449Z,11.77
2017-12-06T04:08:01.331Z,11.30
2017-12-06T04:10:30.219Z,12.47
2017-12-06T04:12:59.047Z,11.50
2017-12-06T04:15:27.891Z,10.40
2017-12-06T04:17:56.720Z,10.83
2017-12-06T04:20:25.987Z,10.50
2017-12-06T04:22:55.568Z,10.63
2017-12-06T04:25:25.143Z,10.97
2017-12-06T04:27:54.722Z,11.80
2017-12-06T04:30:24.290Z,10.97
2017-12-06T04:32:53.114Z,9.93
2017-12-06T04:35:21.963Z,10.73
2017-12-06T04:37:50.804Z,9.73
2017-12-06T04:40:19.683Z,11.30
2017-12-06T04:42:48.562Z,11.50
2017-12-06T04:45:17.398Z,10.70
2017-12-06T04:47:46.230Z,11.30
2017-12-06T04:50:15.065Z,10.57
2017-12-06T04:52:43.930Z,11.10
2017-12-06T04:55:12.761Z,10.93
2017-12-06T04:57:41.609Z,12.20
2017-12-06T05:00:10.445Z,11.23
2017-12-06T05:02:39.265Z,9.73
2017-12-06T05:05:08.117Z,11.33
2017-12-06T05:07:36.965Z,10.87
2017-12-06T05:10:05.799Z,11.30
2017-12-06T05:12:34.750Z,10.97
2017-12-06T05:15:03.590Z,11.37
2017-12-06T05:17:32.428Z,12.10
2017-12-06T05:20:01.269Z,11.87
2017-12-06T05:22:30.098Z,11.00
2017-12-06T05:24:58.935Z,12.33
2017-12-06T05:27:27.776Z,11.27
2017-12-06T05:29:56.734Z,11.93
2017-12-06T05:32:26.306Z,10.07
2017-12-06T05:34:55.890Z,9.47
2017-12-06T05:37:25.464Z,10.10
2017-12-06T05:39:55.054Z,10.73
2017-12-06T05:42:23.894Z,12.20
2017-12-06T05:44:52.742Z,12.70
2017-12-06T05:47:21.601Z,13.90
2017-12-06T05:49:50.446Z,16.53
2017-12-06T05:52:19.274Z,14.07
2017-12-06T05:54:48.177Z,16.33
2017-12-06T05:57:16.984Z,14.17
2017-12-06T05:59:45.810Z,14.63
2017-12-06T06:02:14.657Z,16.53
2017-12-06T06:04:43.501Z,16.17
2017-12-06T06:07:12.338Z,15.63
2017-12-06T06:09:41.162Z,17.70
2017-12-06T06:12:10.015Z,16.90
2017-12-06T06:14:38.867Z,15.30
2017-12-06T06:17:07.689Z,15.60
2017-12-06T06:19:36.543Z,16.03
2017-12-06T06:22:05.375Z,13.60
2017-12-06T06:24:34.342Z,15.40
2017-12-06T06:27:03.443Z,18.23
2017-12-06T06:29:32.279Z,18.80
2017-12-06T06:32:01.196Z,17.27
2017-12-06T06:34:30.043Z,18.53
2017-12-06T06:36:58.872Z,20.43
2017-12-06T06:39:27.706Z,19.43
2017-12-06T06:41:57.327Z,18.30
2017-12-06T06:44:26.898Z,19.70
2017-12-06T06:46:56.517Z,17.67
2017-12-06T06:49:26.113Z,18.17
2017-12-06T06:51:55.710Z,19.90
2017-12-06T06:54:25.287Z,16.60
2017-12-06T06:56:54.162Z,18.10
2017-12-06T06:59:23.306Z,18.10
2017-12-06T07:01:52.138Z,18.40
2017-12-06T07:04:21.005Z,14.97
2017-12-06T07:06:49.842Z,14.40
2017-12-06T07:09:18.704Z,14.80
2017-12-06T07:11:47.557Z,13.57
2017-12-06T07:14:16.393Z,13.33
2017-12-06T07:16:45.243Z,13.37
2017-12-06T07:19:14.095Z,14.27
2017-12-06T07:21:42.927Z,14.27
2017-12-06T07:24:11.782Z,11.80
2017-12-06T07:26:40.632Z,13.40
2017-12-06T07:29:09.581Z,14.73
2017-12-06T07:31:38.419Z,12.30
2017-12-06T07:34:07.277Z,13.10
2017-12-06T07:36:36.123Z,13.60
2017-12-06T07:39:04.955Z,13.13
2017-12-06T07:41:33.793Z,13.47
2017-12-06T07:44:02.831Z,12.60
2017-12-06T07:46:31.659Z,13.03
2017-12-06T07:49:00.503Z,12.67
2017-12-06T07:51:35.230Z,12.20
2017-12-06T07:54:04.074Z,12.60
2017-12-06T07:56:32.922Z,12.80
2017-12-06T07:59:01.756Z,12.10
2017-12-06T08:01:30.604Z,13.20
2017-12-06T08:03:59.438Z,12.10
2017-12-06T08:06:28.396Z,12.93
2017-12-06T08:08:57.985Z,13.30
2017-12-06T08:11:27.562Z,12.20
2017-12-06T08:13:57.153Z,13.10
2017-12-06T08:16:26.733Z,12.97
2017-12-06T08:18:56.324Z,13.60
2017-12-06T08:21:25.159Z,15.03
2017-12-06T08:23:54.005Z,11.70
2017-12-06T08:26:22.893Z,12.70
2017-12-06T08:28:51.785Z,12.87
2017-12-06T08:31:20.627Z,13.50
2017-12-06T08:33:49.459Z,12.60
2017-12-06T08:36:18.295Z,11.63
2017-12-06T08:38:47.181Z,10.60
2017-12-06T08:41:16.015Z,9.90
2017-12-06T08:43:44.846Z,10.80
2017-12-06T08:46:13.691Z,11.30
2017-12-06T08:48:42.518Z,10.80
2017-12-06T08:51:11.351Z,9.63
2017-12-06T08:53:40.198Z,10.77
2017-12-06T08:56:09.047Z,10.27
2017-12-06T08:58:37.884Z,11.60
2017-12-06T09:01:06.758Z,12.10
2017-12-06T09:03:35.590Z,11.40
2017-12-06T09:06:04.422Z,13.03
2017-12-06T09:08:33.274Z,12.27
2017-12-06T09:11:02.216Z,12.90
2017-12-06T09:13:31.050Z,13.10
2017-12-06T09:15:59.893Z,13.30
2017-12-06T09:18:28.717Z,12.43
2017-12-06T09:20:58.298Z,13.47
2017-12-06T09:23:27.888Z,12.47
2017-12-06T09:25:57.469Z,12.30
2017-12-06T09:28:27.047Z,13.80
2017-12-06T09:30:56.637Z,12.47
2017-12-06T09:33:25.473Z,12.67
2017-12-06T09:35:54.315Z,11.77
2017-12-06T09:38:23.187Z,12.63
2017-12-06T09:40:52.019Z,13.23
2017-12-06T09:43:20.849Z,12.00
2017-12-06T09:45:49.781Z,11.83
2017-12-06T09:48:18.647Z,12.97
2017-12-06T09:50:47.479Z,12.17
2017-12-06T09:53:16.327Z,12.87
2017-12-06T09:55:45.162Z,13.10
2017-12-06T09:58:13.994Z,12.27
2017-12-06T10:00:42.834Z,11.60
2017-12-06T10:03:11.674Z,11.63
2017-12-06T10:05:40.561Z,11.33
2017-12-06T10:08:09.574Z,12.90
2017-12-06T10:10:38.470Z,12.63
2017-12-06T10:13:07.326Z,12.13
2017-12-06T10:15:36.252Z,13.23
2017-12-06T10:18:05.144Z,12.47
2017-12-06T10:20:33.976Z,11.17
2017-12-06T10:23:02.825Z,12.33
2017-12-06T10:25:31.649Z,12.57
2017-12-06T10:28:00.481Z,13.37
2017-12-06T10:30:29.331Z,12.20
2017-12-06T10:32:58.903Z,12.80
2017-12-06T10:35:28.504Z,10.90
2017-12-06T10:37:58.083Z,12.20
2017-12-06T10:40:27.653Z,12.33
2017-12-06T10:42:56.505Z,11.73
2017-12-06T10:45:25.347Z,11.10
2017-12-06T10:47:54.194Z,11.17
2017-12-06T10:50:23.035Z,11.40
2017-12-06T10:52:51.914Z,11.30
2017-12-06T10:55:20.738Z,11.00
2017-12-06T10:57:49.578Z,11.43
2017-12-06T11:00:18.420Z,12.87
2017-12-06T11:02:47.321Z,13.90
2017-12-06T11:05:16.182Z,10.83
2017-12-06T11:07:45.036Z,11.60
2017-12-06T11:10:13.864Z,12.40
2017-12-06T11:12:42.722Z,11.77
2017-12-06T11:15:11.566Z,11.40
2017-12-06T11:17:40.569Z,12.30
2017-12-06T11:20:09.475Z,11.77
2017-12-06T11:22:38.321Z,11.20
2017-12-06T11:25:07.249Z,11.50
2017-12-06T11:27:36.075Z,12.80
2017-12-06T11:30:04.927Z,12.03
2017-12-06T11:32:33.753Z,11.90
2017-12-06T11:35:03.447Z,12.10
2017-12-06T11:37:32.319Z,11.60
2017-12-06T11:40:01.151Z,11.00
2017-12-06T11:42:30.259Z,11.12
2017-12-06T11:44:59.855Z,12.30
2017-12-06T11:47:29.431Z,12.63
2017-12-06T11:49:59.024Z,12.23
2017-12-06T11:52:28.606Z,11.47
2017-12-06T11:54:57.440Z,10.70
2017-12-06T11:57:26.281Z,11.03
2017-12-06T11:59:55.134Z,10.40
2017-12-06T12:02:23.973Z,10.20
2017-12-06T12:04:52.804Z,9.70
2017-12-06T12:07:21.698Z,9.40
2017-12-06T12:09:50.521Z,8.60
2017-12-06T12:12:19.486Z,8.53
2017-12-06T12:14:48.376Z,8.13
2017-12-06T12:17:17.198Z,8.87
2017-12-06T12:19:46.053Z,8.93
2017-12-06T12:22:14.893Z,8.97
2017-12-06T12:24:43.720Z,7.90
2017-12-06T12:27:12.551Z,8.77
2017-12-06T12:29:41.377Z,7.53
2017-12-06T12:32:10.269Z,8.00
2017-12-06T12:34:39.097Z,8.53
2017-12-06T12:37:07.947Z,8.27
2017-12-06T12:39:36.767Z,8.80
2017-12-06T12:42:05.611Z,8.10
2017-12-06T12:44:34.455Z,8.80
2017-12-06T12:47:03.294Z,9.70
2017-12-06T12:49:32.130Z,8.23
2017-12-06T12:52:01.209Z,7.53
2017-12-06T12:54:30.775Z,9.30
2017-12-06T12:57:00.360Z,9.60
2017-12-06T12:59:29.946Z,9.70
2017-12-06T13:01:59.514Z,9.57
2017-12-06T13:04:28.337Z,7.93
2017-12-06T13:06:57.186Z,10.43
2017-12-06T13:09:26.016Z,8.10
2017-12-06T13:11:54.848Z,9.30
2017-12-06T13:14:23.778Z,8.70
2017-12-06T13:16:52.609Z,10.00
2017-12-06T13:19:21.433Z,10.93
2017-12-06T13:21:50.351Z,10.50
2017-12-06T13:24:19.189Z,9.43
2017-12-06T13:26:48.011Z,9.67
2017-12-06T13:29:16.871Z,8.97
2017-12-06T13:31:45.699Z,9.90
2017-12-06T13:34:14.553Z,10.07
2017-12-06T13:36:43.386Z,8.80
2017-12-06T13:39:12.209Z,9.43
2017-12-06T13:41:41.037Z,9.40
2017-12-06T13:44:09.872Z,7.93
2017-12-06T13:46:38.711Z,9.13
2017-12-06T13:49:07.542Z,8.00
2017-12-06T13:51:36.671Z,9.27
2017-12-06T13:54:05.514Z,8.30
2017-12-06T13:56:34.342Z,9.10
2017-12-06T13:59:03.206Z,8.57
2017-12-06T14:01:32.264Z,7.97
2017-12-06T14:04:01.902Z,8.80
2017-12-06T14:06:31.497Z,10.40
2017-12-06T14:09:01.086Z,8.57
2017-12-06T14:11:30.665Z,9.30
2017-12-06T14:13:59.509Z,9.77
2017-12-06T14:16:28.341Z,8.53
2017-12-06T14:18:57.177Z,10.50
2017-12-06T14:21:26.091Z,9.50
2017-12-06T14:23:54.917Z,9.90
2017-12-06T14:26:23.765Z,10.10
2017-12-06T14:28:52.604Z,8.93
2017-12-06T14:31:21.435Z,9.53
2017-12-06T14:33:50.305Z,9.30
2017-12-06T14:36:19.140Z,10.57
2017-12-06T14:38:48.004Z,8.97
2017-12-06T14:41:16.989Z,10.10
2017-12-06T14:43:45.827Z,12.00
2017-12-06T14:46:14.654Z,9.30
2017-12-06T14:48:43.484Z,10.90
2017-12-06T14:51:12.683Z,11.00
2017-12-06T14:53:41.510Z,10.50
2017-12-06T14:56:10.349Z,9.07
2017-12-06T14:58:39.190Z,9.60
2017-12-06T15:01:08.018Z,9.57
2017-12-06T15:03:36.845Z,9.00
2017-12-06T15:06:05.686Z,10.23
2017-12-06T15:08:34.525Z,10.63
2017-12-06T15:11:03.656Z,14.13
2017-12-06T15:13:33.894Z,11.77
2017-12-06T15:16:03.329Z,10.85
2017-12-06T15:18:33.041Z,11.27
2017-12-06T15:21:02.636Z,11.87
2017-12-06T15:23:32.209Z,10.50
2017-12-06T15:26:01.827Z,10.13
2017-12-06T15:28:30.652Z,9.90
2017-12-06T15:30:59.551Z,11.40
2017-12-06T15:33:28.527Z,36.87
2017-12-06T15:35:57.359Z,9.07
2017-12-06T15:38:26.188Z,9.50
2017-12-06T15:40:55.035Z,9.17
2017-12-06T15:43:23.907Z,10.47
2017-12-06T15:45:52.728Z,8.50
2017-12-06T15:48:21.560Z,8.70
2017-12-06T15:50:50.474Z,9.43
2017-12-06T15:53:19.302Z,12.10
2017-12-06T15:55:48.223Z,8.00
2017-12-06T15:58:17.160Z,10.17
2017-12-06T16:00:46.004Z,8.80
2017-12-06T16:03:14.842Z,9.53
2017-12-06T16:05:43.674Z,9.40
2017-12-06T16:08:12.522Z,10.00
2017-12-06T16:10:41.412Z,9.43
2017-12-06T16:13:10.301Z,9.50
2017-12-06T16:15:39.114Z,11.00
2017-12-06T16:18:07.958Z,10.47
2017-12-06T16:20:37.409Z,11.00
2017-12-06T16:23:06.294Z,11.17
2017-12-06T16:25:35.131Z,9.20
2017-12-06T16:28:04.457Z,10.88
2017-12-06T16:30:34.140Z,10.70
2017-12-06T16:33:03.750Z,10.87
2017-12-06T16:35:39.181Z,10.87
2017-12-06T16:38:08.105Z,9.80
2017-12-06T16:40:36.933Z,10.40
2017-12-06T16:43:10.659Z,12.30
2017-12-06T16:45:39.494Z,10.90
2017-12-06T16:48:08.349Z,11.57
2017-12-06T16:50:37.185Z,9.87
2017-12-06T16:53:06.015Z,9.50
2017-12-06T16:55:34.836Z,10.60
2017-12-06T16:58:04.455Z,10.20
2017-12-06T17:00:34.102Z,10.97
2017-12-06T17:03:04.727Z,12.40
2017-12-06T17:05:34.290Z,10.70
2017-12-06T17:08:03.878Z,10.93
2017-12-06T17:10:33.536Z,11.50
2017-12-06T17:13:03.222Z,10.90
2017-12-06T17:15:32.078Z,11.60
2017-12-06T17:18:00.914Z,11.50
2017-12-06T17:20:29.750Z,12.43
2017-12-06T17:22:58.596Z,10.60
2017-12-06T17:25:27.442Z,13.23
2017-12-06T17:27:56.280Z,13.73
2017-12-06T17:30:30.894Z,9.27
2017-12-06T17:32:59.771Z,11.60
2017-12-06T17:35:28.604Z,11.20
2017-12-06T17:37:57.481Z,12.40
2017-12-06T17:40:26.307Z,12.23
2017-12-06T17:42:55.247Z,13.20
2017-12-06T17:45:24.123Z,13.73
2017-12-06T17:47:52.958Z,12.20
2017-12-06T17:50:24.715Z,11.37
2017-12-06T17:52:53.566Z,10.87
2017-12-06T17:55:22.407Z,11.23
2017-12-06T17:57:51.276Z,11.23
2017-12-06T18:00:20.134Z,10.40
2017-12-06T18:02:48.960Z,11.10
2017-12-06T18:05:17.803Z,10.93
2017-12-06T18:07:46.843Z,10.03
2017-12-06T18:10:16.580Z,9.60
2017-12-06T18:12:45.427Z,10.57
2017-12-06T18:15:14.250Z,12.33
2017-12-06T18:17:43.344Z,9.20
2017-12-06T18:20:12.237Z,9.70
2017-12-06T18:22:41.090Z,10.27
2017-12-06T18:25:09.914Z,9.80
2017-12-06T18:27:38.764Z,10.30
2017-12-06T18:30:07.594Z,9.27
2017-12-06T18:32:36.510Z,8.00
2017-12-06T18:35:05.466Z,8.43
2017-12-06T18:37:34.295Z,8.93
2017-12-06T18:40:03.122Z,9.70
2017-12-06T18:42:32.031Z,9.50
2017-12-06T18:45:00.881Z,9.17
2017-12-06T18:47:29.714Z,9.80
2017-12-06T18:49:58.562Z,8.63
2017-12-06T18:52:27.403Z,9.87
2017-12-06T18:54:56.234Z,13.40
2017-12-06T18:57:25.092Z,12.27
2017-12-06T18:59:53.935Z,12.70
2017-12-06T19:02:22.771Z,11.30
2017-12-06T19:04:51.608Z,10.90
2017-12-06T19:07:20.564Z,10.47
2017-12-06T19:09:49.478Z,9.53
2017-12-06T19:12:18.323Z,13.37
2017-12-06T19:14:47.307Z,13.00
2017-12-06T19:17:16.147Z,10.80
2017-12-06T19:19:45.071Z,9.67
2017-12-06T19:22:13.902Z,10.23
2017-12-06T19:24:42.729Z,10.50
2017-12-06T19:27:11.984Z,9.90
2017-12-06T19:29:40.818Z,9.40
2017-12-06T19:32:10.138Z,11.18
2017-12-06T19:34:39.746Z,9.57
2017-12-06T19:37:09.313Z,9.67
2017-12-06T19:39:38.926Z,9.27
2017-12-06T19:42:08.489Z,17.50
2017-12-06T19:44:37.318Z,9.47
2017-12-06T19:47:06.150Z,8.60
2017-12-06T19:49:35.002Z,9.93
2017-12-06T19:52:03.851Z,9.87
2017-12-06T19:54:32.739Z,10.17
2017-12-06T19:57:01.632Z,10.20
2017-12-06T19:59:30.463Z,9.70
2017-12-06T20:01:59.293Z,10.43
2017-12-06T20:04:28.137Z,9.80
2017-12-06T20:06:56.961Z,9.67
2017-12-06T20:09:25.816Z,10.40
2017-12-06T20:11:54.698Z,10.00
2017-12-06T20:14:23.545Z,7.60
2017-12-06T20:16:52.374Z,8.07
2017-12-06T20:19:22.246Z,9.93
2017-12-06T20:21:51.074Z,7.70
2017-12-06T20:24:20.086Z,8.90
2017-12-06T20:26:48.984Z,9.53
2017-12-06T20:29:17.805Z,9.13
2017-12-06T20:31:46.699Z,8.47
2017-12-06T20:34:15.571Z,8.73
2017-12-06T20:36:44.408Z,8.60
2017-12-06T20:39:13.271Z,9.30
2017-12-06T20:41:42.240Z,9.53
2017-12-06T20:44:11.171Z,10.63
2017-12-06T20:46:40.763Z,9.87
2017-12-06T20:49:10.348Z,9.70
2017-12-06T20:51:39.923Z,8.90
2017-12-06T20:54:09.507Z,9.20
2017-12-06T20:56:38.405Z,9.20
2017-12-06T20:59:07.243Z,8.93
2017-12-06T21:01:36.074Z,9.00
2017-12-06T21:04:04.941Z,9.57
2017-12-06T21:06:33.757Z,9.90
2017-12-06T21:09:02.607Z,10.03
2017-12-06T21:11:31.480Z,8.70
2017-12-06T21:14:00.330Z,9.70
2017-12-06T21:16:29.298Z,10.00
2017-12-06T21:18:58.139Z,9.87
2017-12-06T21:21:26.970Z,10.83
2017-12-06T21:23:55.818Z,11.10
2017-12-06T21:26:24.650Z,9.83
2017-12-06T21:28:53.486Z,11.47
2017-12-06T21:31:22.312Z,8.80
2017-12-06T21:33:51.516Z,10.27
2017-12-06T21:36:20.594Z,10.60
2017-12-06T21:38:49.547Z,11.37
2017-12-06T21:41:18.392Z,10.67
2017-12-06T21:43:47.218Z,12.07
2017-12-06T21:46:16.049Z,11.30
2017-12-06T21:48:44.987Z,10.40
2017-12-06T21:51:13.822Z,9.40
2017-12-06T21:53:42.651Z,10.27
2017-12-06T21:56:12.247Z,11.63
2017-12-06T21:58:41.897Z,10.93
2017-12-06T22:01:11.519Z,11.57
2017-12-06T22:03:41.125Z,10.40
2017-12-06T22:06:10.699Z,10.13
2017-12-06T22:08:39.529Z,10.33
2017-12-06T22:11:08.400Z,11.70
2017-12-06T22:13:37.594Z,13.07
2017-12-06T22:16:06.468Z,11.73
2017-12-06T22:18:35.314Z,12.30
2017-12-06T22:21:04.240Z,13.17
2017-12-06T22:23:33.094Z,15.67
2017-12-06T22:26:01.938Z,14.80
2017-12-06T22:28:30.774Z,13.80
2017-12-06T22:30:59.612Z,15.07
2017-12-06T22:33:28.505Z,15.97
2017-12-06T22:35:57.401Z,16.07
2017-12-06T22:38:26.230Z,15.10
2017-12-06T22:40:55.076Z,14.57
2017-12-06T22:43:23.916Z,15.50
2017-12-06T22:45:52.746Z,14.50
2017-12-06T22:48:21.590Z,15.20
2017-12-06T22:50:50.438Z,18.40
2017-12-06T22:53:19.271Z,18.77
2017-12-06T22:55:48.145Z,18.10
2017-12-06T22:58:17.000Z,19.23
2017-12-06T23:00:45.898Z,17.97
2017-12-06T23:03:14.746Z,16.43
2017-12-06T23:05:43.589Z,17.13
2017-12-06T23:08:13.163Z,15.67
2017-12-06T23:10:42.759Z,15.33
2017-12-06T23:13:12.338Z,14.20
2017-12-06T23:15:41.918Z,16.33
2017-12-06T23:18:16.858Z,14.73
2017-12-06T23:20:45.708Z,14.67
2017-12-06T23:23:14.549Z,15.27
2017-12-06T23:25:43.672Z,14.27
2017-12-06T23:28:13.251Z,14.67
2017-12-06T23:30:42.930Z,16.17
2017-12-06T23:33:12.502Z,15.17
2017-12-06T23:35:42.094Z,14.60
2017-12-06T23:38:10.981Z,12.53
2017-12-06T23:40:39.814Z,14.30
2017-12-06T23:43:08.652Z,14.20
2017-12-06T23:45:37.633Z,13.87
2017-12-06T23:48:06.461Z,14.50
2017-12-06T23:50:35.295Z,15.07
2017-12-06T23:53:04.133Z,14.83
2017-12-06T23:55:33.114Z,16.90
2017-12-06T23:58:01.965Z,17.50
